Time;durP1;ratioP1;P1;durP2;ratioP2;P2;SDS_P1;SDS_P2;PMS_P1;PMS_P2;Temp;Humidity;BMP_temperature;BMP_pressure;BME280_temperature;BME280_humidity;BME280_pressure;Samples;Min_cycle;Max_cycle;Signal;HPM_P1;HPM_P2
2022/03/09 00:00:05;;;;;;;;;;;22.30;99.90;;;;;;6134023;23;19916;-78
2022/03/09 00:02:31;;;;;;;;;;;22.30;99.90;;;;;;6159398;23;19936;-78
2022/03/09 00:04:58;;;;;;;;;;;22.30;99.90;;;;;;6131983;23;19981;-77
2022/03/09 00:07:27;;;;;;;;;;;22.40;99.90;;;;;;6132338;23;19986;-77
2022/03/09 00:09:54;;;;;;;;;;;22.40;99.90;;;;;;6132590;23;19904;-77
2022/03/09 00:12:20;;;;;;;;;;;22.70;99.90;;;;;;6132173;23;20266;-77
2022/03/09 00:14:47;;;;;;;;;;;22.80;99.90;;;;;;6132902;23;19909;-78
2022/03/09 00:17:14;;;;;;;;;;;22.90;99.90;;;;;;6132394;23;19928;-78
2022/03/09 00:19:42;;;;;;;;;;;22.80;99.90;;;;;;6107833;23;19991;-78
2022/03/09 00:22:08;;;;;;;;;;;22.90;99.90;;;;;;6158772;23;19971;-79
2022/03/09 00:24:35;;;;;;;;;;;23.30;99.90;;;;;;6131817;23;20231;-78
2022/03/09 00:27:02;;;;;;;;;;;23.30;99.90;;;;;;6132811;23;20377;-78
2022/03/09 00:29:28;;;;;;;;;;;23.20;99.90;;;;;;6159027;23;19923;-79
2022/03/09 00:31:55;;;;;;;;;;;23.20;99.90;;;;;;6131759;23;19901;-77
2022/03/09 00:34:22;;;;;;;;;;;23.00;99.90;;;;;;6158245;23;19904;-79
2022/03/09 00:36:48;;;;;;;;;;;22.90;99.90;;;;;;6134586;23;19955;-79
2022/03/09 00:39:15;;;;;;;;;;;22.90;99.90;;;;;;6131791;23;20384;-78
2022/03/09 00:41:42;;;;;;;;;;;22.80;99.90;;;;;;6157742;23;19982;-75
2022/03/09 00:44:08;;;;;;;;;;;22.70;99.90;;;;;;6158456;23;20230;-79
2022/03/09 00:46:35;;;;;;;;;;;22.60;99.90;;;;;;6157703;23;19973;-78
2022/03/09 00:49:02;;;;;;;;;;;22.50;99.90;;;;;;6132933;23;19983;-78
2022/03/09 00:51:28;;;;;;;;;;;22.40;99.90;;;;;;6131484;23;19906;-77
2022/03/09 00:53:55;;;;;;;;;;;22.40;99.90;;;;;;6157708;23;19912;-79
2022/03/09 00:56:22;;;;;;;;;;;22.40;99.90;;;;;;6157968;23;19901;-79
2022/03/09 00:58:48;;;;;;;;;;;22.30;99.90;;;;;;6131865;23;19979;-79
2022/03/09 01:01:15;;;;;;;;;;;22.20;99.90;;;;;;6158966;23;19907;-79
2022/03/09 01:03:42;;;;;;;;;;;22.30;99.90;;;;;;6130526;23;20277;-78
2022/03/09 01:06:08;;;;;;;;;;;22.30;99.90;;;;;;6130209;23;20237;-78
2022/03/09 01:08:35;;;;;;;;;;;22.60;99.90;;;;;;6130463;23;20215;-78
2022/03/09 01:11:02;;;;;;;;;;;22.90;99.90;;;;;;6156454;23;19948;-78
2022/03/09 01:13:28;;;;;;;;;;;23.10;99.90;;;;;;6130143;23;20011;-78
2022/03/09 01:15:55;;;;;;;;;;;23.50;99.90;;;;;;6156522;23;20018;-79
2022/03/09 01:18:21;;;;;;;;;;;23.50;99.90;;;;;;6156678;23;19983;-78
2022/03/09 01:20:48;;;;;;;;;;;23.80;99.90;;;;;;6130722;23;20290;-78
2022/03/09 01:23:15;;;;;;;;;;;23.90;99.90;;;;;;6130278;23;19901;-78
2022/03/09 01:25:41;;;;;;;;;;;24.20;99.90;;;;;;6130200;23;19901;-77
2022/03/09 01:28:08;;;;;;;;;;;24.10;99.90;;;;;;6156242;23;19975;-75
2022/03/09 01:30:35;;;;;;;;;;;23.70;99.90;;;;;;6156435;23;19975;-78
2022/03/09 01:33:01;;;;;;;;;;;23.90;99.90;;;;;;6156349;23;19928;-78
2022/03/09 01:35:28;;;;;;;;;;;24.00;99.90;;;;;;6130095;23;19911;-77
2022/03/09 01:37:54;;;;;;;;;;;23.80;99.90;;;;;;6156281;23;20337;-76
2022/03/09 01:40:21;;;;;;;;;;;23.60;99.90;;;;;;6130066;23;19907;-78
2022/03/09 01:42:48;;;;;;;;;;;23.70;99.90;;;;;;6156157;23;19900;-78
2022/03/09 01:45:15;;;;;;;;;;;23.60;99.90;;;;;;6130110;23;19904;-78
2022/03/09 01:47:42;;;;;;;;;;;23.60;99.90;;;;;;6130368;23;19900;-79
2022/03/09 01:50:09;;;;;;;;;;;23.50;99.90;;;;;;6130159;23;19901;-78
2022/03/09 01:52:36;;;;;;;;;;;23.30;99.90;;;;;;6156226;23;19901;-79
2022/03/09 01:55:03;;;;;;;;;;;23.30;99.90;;;;;;6129913;23;19904;-78
2022/03/09 01:57:30;;;;;;;;;;;23.20;99.90;;;;;;6129778;23;19904;-79
2022/03/09 01:59:57;;;;;;;;;;;23.00;99.90;;;;;;6130063;23;19900;-79
2022/03/09 02:02:24;;;;;;;;;;;22.90;99.90;;;;;;6129855;23;19976;-78
2022/03/09 02:04:50;;;;;;;;;;;23.10;99.90;;;;;;6129780;23;19904;-77
2022/03/09 02:07:18;;;;;;;;;;;23.50;99.90;;;;;;6156286;23;20287;-78
2022/03/09 02:09:47;;;;;;;;;;;23.70;99.90;;;;;;6130073;23;20207;-79
2022/03/09 02:12:15;;;;;;;;;;;23.60;99.90;;;;;;6156012;23;19975;-79
2022/03/09 02:14:44;;;;;;;;;;;23.90;99.90;;;;;;6129832;23;20328;-79
2022/03/09 02:17:17;;;;;;;;;;;23.70;99.90;;;;;;6155983;23;20278;-78
2022/03/09 02:19:45;;;;;;;;;;;23.30;99.90;;;;;;6129840;23;19907;-78
2022/03/09 02:22:25;;;;;;;;;;;23.30;99.90;;;;;;6155979;23;19907;-79
2022/03/09 02:24:52;;;;;;;;;;;23.30;99.90;;;;;;6129975;23;19901;-79
2022/03/09 02:27:22;;;;;;;;;;;23.30;99.90;;;;;;6129663;23;20322;-79
2022/03/09 02:29:49;;;;;;;;;;;23.50;99.90;;;;;;6155970;23;20397;-78
2022/03/09 02:32:17;;;;;;;;;;;23.60;99.90;;;;;;6155929;23;19901;-78
2022/03/09 02:34:44;;;;;;;;;;;23.70;99.90;;;;;;6129642;23;20318;-78
2022/03/09 02:37:10;;;;;;;;;;;23.50;99.90;;;;;;6129785;23;19983;-78
2022/03/09 02:39:37;;;;;;;;;;;23.60;99.90;;;;;;6155801;23;19931;-77
2022/03/09 02:42:04;;;;;;;;;;;23.50;99.90;;;;;;6155795;23;19901;-78
2022/03/09 02:44:31;;;;;;;;;;;23.40;99.90;;;;;;6129706;23;19979;-78
2022/03/09 02:46:57;;;;;;;;;;;23.50;99.90;;;;;;6155947;23;19900;-78
2022/03/09 02:49:24;;;;;;;;;;;23.60;99.90;;;;;;6129750;23;19900;-78
2022/03/09 02:51:51;;;;;;;;;;;23.60;99.90;;;;;;6155998;23;19901;-78
2022/03/09 02:54:18;;;;;;;;;;;23.70;99.90;;;;;;6129598;23;19911;-79
2022/03/09 02:56:45;;;;;;;;;;;23.80;99.90;;;;;;6155940;23;19955;-78
2022/03/09 02:59:12;;;;;;;;;;;24.10;99.90;;;;;;6155957;23;19951;-78
2022/03/09 03:01:38;;;;;;;;;;;24.20;99.90;;;;;;6129742;23;19900;-79
2022/03/09 03:04:05;;;;;;;;;;;24.60;99.90;;;;;;6129466;23;19904;-78
2022/03/09 03:06:31;;;;;;;;;;;24.90;99.90;;;;;;6129615;23;19978;-79
2022/03/09 03:08:58;;;;;;;;;;;25.20;99.90;;;;;;6129669;23;19979;-78
2022/03/09 03:11:25;;;;;;;;;;;24.80;99.90;;;;;;6129620;23;19951;-79
2022/03/09 03:13:51;;;;;;;;;;;24.40;99.90;;;;;;6155631;23;19909;-79
2022/03/09 03:16:18;;;;;;;;;;;24.20;99.90;;;;;;6155844;23;19901;-78
2022/03/09 03:18:45;;;;;;;;;;;24.40;99.90;;;;;;6155880;23;19901;-78
2022/03/09 03:21:11;;;;;;;;;;;24.80;99.90;;;;;;6129586;23;19900;-78
2022/03/09 03:23:38;;;;;;;;;;;25.00;99.90;;;;;;6131383;23;19905;-77
2022/03/09 03:26:05;;;;;;;;;;;25.00;99.90;;;;;;6131416;23;19901;-78
2022/03/09 03:28:32;;;;;;;;;;;25.00;99.90;;;;;;6157786;23;19900;-77
2022/03/09 03:30:59;;;;;;;;;;;24.90;99.90;;;;;;6131377;23;20285;-77
2022/03/09 03:33:25;;;;;;;;;;;24.90;99.90;;;;;;6157646;23;19900;-77
2022/03/09 03:35:52;;;;;;;;;;;25.20;99.90;;;;;;6131388;23;19947;-77
2022/03/09 03:38:19;;;;;;;;;;;25.00;99.90;;;;;;6157557;23;20261;-77
2022/03/09 03:40:46;;;;;;;;;;;24.90;99.90;;;;;;6157533;23;19979;-77
2022/03/09 03:43:13;;;;;;;;;;;24.90;99.90;;;;;;6131238;23;19900;-78
2022/03/09 03:45:40;;;;;;;;;;;24.50;99.90;;;;;;6157672;23;19904;-77
2022/03/09 03:48:07;;;;;;;;;;;24.50;99.90;;;;;;6131400;23;20266;-78
2022/03/09 03:50:33;;;;;;;;;;;24.50;99.90;;;;;;6131751;23;19904;-78
2022/03/09 03:53:00;;;;;;;;;;;24.30;99.90;;;;;;6157237;23;19967;-78
2022/03/09 03:55:27;;;;;;;;;;;24.00;99.90;;;;;;6157249;23;19960;-78
2022/03/09 03:57:54;;;;;;;;;;;24.20;99.90;;;;;;6131203;23;19901;-78
2022/03/09 04:00:21;;;;;;;;;;;23.90;99.90;;;;;;6157204;23;19900;-78
2022/03/09 04:02:51;;;;;;;;;;;24.50;99.90;;;;;;6131117;23;19905;-78
2022/03/09 04:05:17;;;;;;;;;;;24.80;99.90;;;;;;6156923;23;19908;-78
2022/03/09 04:07:44;;;;;;;;;;;25.00;99.90;;;;;;6131059;23;19907;-77
2022/03/09 04:10:11;;;;;;;;;;;25.50;99.90;;;;;;6131272;23;19979;-77
2022/03/09 04:12:38;;;;;;;;;;;25.40;99.90;;;;;;6157238;23;20277;-78
2022/03/09 04:15:04;;;;;;;;;;;25.20;99.90;;;;;;6130871;23;19908;-77
2022/03/09 04:17:38;;;;;;;;;;;25.20;99.90;;;;;;6130765;23;19979;-77
2022/03/09 04:20:05;;;;;;;;;;;25.00;99.90;;;;;;6131015;23;19908;-78
2022/03/09 04:22:31;;;;;;;;;;;24.70;99.90;;;;;;6130941;23;19901;-78
2022/03/09 04:24:59;;;;;;;;;;;24.60;99.90;;;;;;6130694;23;19901;-77
2022/03/09 04:27:25;;;;;;;;;;;24.40;99.90;;;;;;6156875;23;19900;-78
2022/03/09 04:29:52;;;;;;;;;;;24.40;99.90;;;;;;6130945;23;19907;-78
2022/03/09 04:32:19;;;;;;;;;;;24.40;99.90;;;;;;6130757;23;19932;-78
2022/03/09 04:34:45;;;;;;;;;;;24.40;99.90;;;;;;6130198;23;20238;-78
2022/03/09 04:37:12;;;;;;;;;;;24.20;99.90;;;;;;6130754;23;19901;-78
2022/03/09 04:39:39;;;;;;;;;;;24.20;99.90;;;;;;6156968;23;20330;-78
2022/03/09 04:42:05;;;;;;;;;;;24.70;99.90;;;;;;6130622;23;19907;-77
2022/03/09 04:44:32;;;;;;;;;;;24.50;99.90;;;;;;6156906;23;20333;-78
2022/03/09 04:46:59;;;;;;;;;;;24.30;99.90;;;;;;6130924;23;20035;-77
2022/03/09 04:49:25;;;;;;;;;;;24.00;99.90;;;;;;6156820;23;19999;-77
2022/03/09 04:51:52;;;;;;;;;;;23.80;99.90;;;;;;6156667;23;19928;-77
2022/03/09 04:54:18;;;;;;;;;;;23.60;99.90;;;;;;6130383;23;20310;-77
2022/03/09 04:56:45;;;;;;;;;;;23.50;99.90;;;;;;6130459;23;19935;-78
2022/03/09 04:59:13;;;;;;;;;;;23.60;99.90;;;;;;6156766;23;20216;-78
2022/03/09 05:01:39;;;;;;;;;;;23.70;99.90;;;;;;6130466;23;19951;-78
2022/03/09 05:04:06;;;;;;;;;;;23.60;99.90;;;;;;6156638;23;20261;-79
2022/03/09 05:06:32;;;;;;;;;;;23.60;99.90;;;;;;6156345;23;20322;-78
2022/03/09 05:08:59;;;;;;;;;;;;;;;;;;6156589;23;19955;-77
2022/03/09 05:11:26;;;;;;;;;;;23.40;99.90;;;;;;6156258;23;19901;-78
2022/03/09 05:13:52;;;;;;;;;;;23.40;99.90;;;;;;6130024;23;19943;-79
2022/03/09 05:16:19;;;;;;;;;;;23.70;99.90;;;;;;6130266;23;19942;-78
2022/03/09 05:18:45;;;;;;;;;;;23.70;99.90;;;;;;6156389;23;19958;-79
2022/03/09 05:21:12;;;;;;;;;;;23.60;99.90;;;;;;6130258;23;20226;-78
2022/03/09 05:23:39;;;;;;;;;;;23.60;99.90;;;;;;6130146;23;19927;-78
2022/03/09 05:26:05;;;;;;;;;;;23.80;99.90;;;;;;6130261;23;19900;-79
2022/03/09 05:28:32;;;;;;;;;;;23.70;99.90;;;;;;6156294;23;19900;-78
2022/03/09 05:30:59;;;;;;;;;;;23.50;99.90;;;;;;6130098;23;20233;-77
2022/03/09 05:33:28;;;;;;;;;;;23.50;99.90;;;;;;6155975;23;19901;-78
2022/03/09 05:35:55;;;;;;;;;;;23.50;99.90;;;;;;6156351;23;19901;-79
2022/03/09 05:38:21;;;;;;;;;;;23.60;99.90;;;;;;6156274;23;20055;-79
2022/03/09 05:40:48;;;;;;;;;;;23.60;99.90;;;;;;6130111;23;20323;-79
2022/03/09 05:43:15;;;;;;;;;;;23.50;99.90;;;;;;6156097;23;20322;-78
2022/03/09 05:45:41;;;;;;;;;;;23.40;99.90;;;;;;6129871;23;19900;-78
2022/03/09 05:48:08;;;;;;;;;;;23.50;99.90;;;;;;6130114;23;19904;-79
2022/03/09 05:50:36;;;;;;;;;;;23.50;99.90;;;;;;6130061;23;19971;-78
2022/03/09 05:53:03;;;;;;;;;;;23.50;99.90;;;;;;6156069;23;19900;-78
2022/03/09 05:55:29;;;;;;;;;;;23.50;99.90;;;;;;6129978;23;19931;-79
2022/03/09 05:57:56;;;;;;;;;;;23.60;99.90;;;;;;6130015;23;19901;-79
2022/03/09 06:00:23;;;;;;;;;;;23.80;99.90;;;;;;6130027;23;19901;-78
2022/03/09 06:02:49;;;;;;;;;;;24.10;99.90;;;;;;6156208;23;19996;-77
2022/03/09 06:05:16;;;;;;;;;;;24.10;99.90;;;;;;6129586;23;19908;-78
2022/03/09 06:07:43;;;;;;;;;;;24.00;99.90;;;;;;6155907;23;19909;-78
2022/03/09 06:10:10;;;;;;;;;;;24.20;99.90;;;;;;6129924;23;19911;-78
2022/03/09 06:12:37;;;;;;;;;;;23.90;99.90;;;;;;6129879;23;19959;-77
2022/03/09 06:15:04;;;;;;;;;;;24.00;99.90;;;;;;6129688;23;19909;-76
2022/03/09 06:17:31;;;;;;;;;;;23.90;99.90;;;;;;6155911;23;19901;-76
2022/03/09 06:19:57;;;;;;;;;;;23.80;99.90;;;;;;6129551;23;19901;-76
2022/03/09 06:22:24;;;;;;;;;;;23.80;99.90;;;;;;6155801;23;19976;-75
2022/03/09 06:24:50;;;;;;;;;;;23.70;99.90;;;;;;6155875;23;19955;-76
2022/03/09 06:27:17;;;;;;;;;;;23.80;99.90;;;;;;6155986;23;19955;-75
2022/03/09 06:29:44;;;;;;;;;;;23.60;99.90;;;;;;6155888;23;20381;-76
2022/03/09 06:32:10;;;;;;;;;;;23.90;99.90;;;;;;6129725;23;19983;-76
2022/03/09 06:34:37;;;;;;;;;;;23.70;99.90;;;;;;6129465;23;20275;-76
2022/03/09 06:37:04;;;;;;;;;;;23.60;99.90;;;;;;6155954;23;19907;-76
2022/03/09 06:39:30;;;;;;;;;;;23.60;99.90;;;;;;6155529;23;19999;-76
2022/03/09 06:41:57;;;;;;;;;;;23.50;99.90;;;;;;6128925;23;19901;-76
2022/03/09 06:44:24;;;;;;;;;;;23.50;99.90;;;;;;6155103;23;20278;-76
2022/03/09 06:46:50;;;;;;;;;;;23.50;99.90;;;;;;6155029;23;19908;-77
2022/03/09 06:49:17;;;;;;;;;;;23.40;99.90;;;;;;6155075;23;19904;-76
2022/03/09 06:51:44;;;;;;;;;;;23.30;99.90;;;;;;6128823;23;19951;-74
2022/03/09 06:54:11;;;;;;;;;;;23.20;99.90;;;;;;6128698;23;19991;-74
2022/03/09 06:56:37;;;;;;;;;;;23.00;99.90;;;;;;6129255;23;20234;-77
2022/03/09 06:59:04;;;;;;;;;;;22.80;99.90;;;;;;6157363;23;19979;-77
2022/03/09 07:01:31;;;;;;;;;;;23.10;99.90;;;;;;6131049;23;19901;-77
2022/03/09 07:03:57;;;;;;;;;;;23.40;99.90;;;;;;6157047;23;19905;-77
2022/03/09 07:06:24;;;;;;;;;;;23.40;99.90;;;;;;6130675;23;20230;-74
2022/03/09 07:08:51;;;;;;;;;;;23.50;99.90;;;;;;6157491;23;19900;-75
2022/03/09 07:11:17;;;;;;;;;;;23.70;99.90;;;;;;6131073;23;20310;-75
2022/03/09 07:13:44;;;;;;;;;;;23.90;99.90;;;;;;6131034;23;19955;-75
2022/03/09 07:16:11;;;;;;;;;;;24.10;99.90;;;;;;6157368;23;19908;-75
2022/03/09 07:18:37;;;;;;;;;;;23.90;99.90;;;;;;6131292;23;19911;-75
2022/03/09 07:21:04;;;;;;;;;;;23.90;99.90;;;;;;6157321;23;19928;-76
2022/03/09 07:23:30;;;;;;;;;;;23.90;99.90;;;;;;6130955;23;19963;-75
2022/03/09 07:25:57;;;;;;;;;;;23.90;99.90;;;;;;6157089;23;19904;-74
2022/03/09 07:28:24;;;;;;;;;;;23.50;99.90;;;;;;6157070;23;19900;-75
2022/03/09 07:30:50;;;;;;;;;;;23.20;99.90;;;;;;6130765;23;19904;-75
2022/03/09 07:33:17;;;;;;;;;;;23.00;99.90;;;;;;6130644;23;20322;-74
2022/03/09 07:35:45;;;;;;;;;;;22.60;99.90;;;;;;6130773;23;19983;-75
2022/03/09 07:38:13;;;;;;;;;;;22.20;99.90;;;;;;6130797;23;19959;-74
2022/03/09 07:40:39;;;;;;;;;;;22.00;99.90;;;;;;6130764;23;19905;-74
2022/03/09 07:43:06;;;;;;;;;;;21.80;99.90;;;;;;6130994;23;19978;-74
2022/03/09 07:45:33;;;;;;;;;;;21.70;99.90;;;;;;6157385;23;20238;-75
2022/03/09 07:47:59;;;;;;;;;;;21.50;99.90;;;;;;6157259;23;19904;-74
2022/03/09 07:50:26;;;;;;;;;;;21.40;99.90;;;;;;6157132;23;19901;-73
2022/03/09 07:52:52;;;;;;;;;;;21.30;99.90;;;;;;6157096;23;20292;-74
2022/03/09 07:55:19;;;;;;;;;;;21.20;99.90;;;;;;6130961;23;20207;-74
2022/03/09 07:57:46;;;;;;;;;;;21.10;99.90;;;;;;6130920;23;19908;-74
2022/03/09 08:00:13;;;;;;;;;;;21.10;99.90;;;;;;6157361;23;19900;-75
2022/03/09 08:02:40;;;;;;;;;;;21.00;99.90;;;;;;6157300;23;20012;-74
2022/03/09 08:05:07;;;;;;;;;;;21.00;99.90;;;;;;6156978;23;19909;-73
2022/03/09 08:07:34;;;;;;;;;;;21.00;99.90;;;;;;6157094;23;19908;-74
2022/03/09 08:10:01;;;;;;;;;;;20.90;99.90;;;;;;6157208;23;19955;-74
2022/03/09 08:12:28;;;;;;;;;;;20.80;99.90;;;;;;6130859;23;19949;-75
2022/03/09 08:14:54;;;;;;;;;;;20.70;99.90;;;;;;6157078;23;19931;-74
2022/03/09 08:17:22;;;;;;;;;;;20.60;99.90;;;;;;6156893;23;19975;-74
2022/03/09 08:19:49;;;;;;;;;;;20.50;99.90;;;;;;6157140;23;19979;-74
2022/03/09 08:22:15;;;;;;;;;;;20.50;99.90;;;;;;6157060;23;19928;-73
2022/03/09 08:24:42;;;;;;;;;;;20.50;99.90;;;;;;6157092;23;19907;-74
2022/03/09 08:27:08;;;;;;;;;;;20.40;99.90;;;;;;6157084;23;19905;-74
2022/03/09 08:29:35;;;;;;;;;;;20.30;99.90;;;;;;6157057;23;19908;-74
2022/03/09 08:32:02;;;;;;;;;;;20.30;99.90;;;;;;6156960;23;20258;-73
2022/03/09 08:34:28;;;;;;;;;;;20.30;99.90;;;;;;6130640;23;20090;-74
2022/03/09 08:36:55;;;;;;;;;;;20.30;99.90;;;;;;6156853;23;20310;-73
2022/03/09 08:42:34;;;;;;;;;;;20.20;99.90;;;;;;6156903;23;19907;-75
2022/03/09 08:45:01;;;;;;;;;;;20.20;99.90;;;;;;6156814;23;19901;-75
2022/03/09 08:47:27;;;;;;;;;;;20.10;99.90;;;;;;6156798;23;20278;-75
2022/03/09 08:49:54;;;;;;;;;;;20.10;99.90;;;;;;6130641;23;20211;-75
2022/03/09 08:52:21;;;;;;;;;;;20.10;99.90;;;;;;6156870;23;19904;-74
2022/03/09 08:54:48;;;;;;;;;;;20.00;99.90;;;;;;6130487;23;19910;-75
2022/03/09 08:57:15;;;;;;;;;;;20.00;99.90;;;;;;6130574;23;19901;-73
2022/03/09 08:59:43;;;;;;;;;;;19.90;99.90;;;;;;6156719;23;20337;-74
2022/03/09 09:02:10;;;;;;;;;;;19.90;99.90;;;;;;6156796;23;19905;-75
2022/03/09 09:04:37;;;;;;;;;;;19.90;99.90;;;;;;6156559;23;20276;-76
2022/03/09 09:07:04;;;;;;;;;;;19.90;99.90;;;;;;6130605;23;19905;-76
2022/03/09 09:09:30;;;;;;;;;;;19.80;99.90;;;;;;6130602;23;20377;-75
2022/03/09 09:11:59;;;;;;;;;;;19.80;99.90;;;;;;6130507;23;19951;-75
2022/03/09 09:14:26;;;;;;;;;;;19.80;99.90;;;;;;6156929;23;20234;-74
2022/03/09 09:16:53;;;;;;;;;;;19.70;99.90;;;;;;6156848;23;19904;-75
2022/03/09 09:19:19;;;;;;;;;;;19.80;99.90;;;;;;6130173;23;20305;-75
2022/03/09 09:21:46;;;;;;;;;;;19.70;99.90;;;;;;6156710;23;19900;-74
2022/03/09 09:24:14;;;;;;;;;;;19.70;99.90;;;;;;6156627;23;20234;-74
2022/03/09 09:26:40;;;;;;;;;;;19.70;99.90;;;;;;6156512;23;19908;-74
2022/03/09 09:29:07;;;;;;;;;;;19.70;99.90;;;;;;6156403;23;19901;-76
2022/03/09 09:31:34;;;;;;;;;;;19.60;99.90;;;;;;6156329;23;20282;-74
2022/03/09 09:34:02;;;;;;;;;;;19.60;99.90;;;;;;6156233;23;20004;-74
2022/03/09 09:36:28;;;;;;;;;;;19.50;99.90;;;;;;6156338;23;19900;-74
2022/03/09 09:38:55;;;;;;;;;;;19.50;99.90;;;;;;6156348;23;20318;-72
2022/03/09 09:41:25;;;;;;;;;;;19.50;99.90;;;;;;6156319;23;19901;-74
2022/03/09 09:43:52;;;;;;;;;;;19.40;99.90;;;;;;6129953;23;20314;-74
2022/03/09 09:46:19;;;;;;;;;;;19.30;99.90;;;;;;6156163;23;19904;-74
2022/03/09 09:48:47;;;;;;;;;;;19.30;99.90;;;;;;6156110;23;19900;-74
2022/03/09 09:51:13;;;;;;;;;;;19.30;99.90;;;;;;6156001;23;19901;-74
2022/03/09 09:53:43;;;;;;;;;;;19.30;99.90;;;;;;6156186;23;19936;-74
2022/03/09 09:56:13;;;;;;;;;;;19.30;99.90;;;;;;6156171;23;19907;-74
2022/03/09 09:58:43;;;;;;;;;;;19.20;99.90;;;;;;6156136;23;20282;-75
2022/03/09 10:01:10;;;;;;;;;;;19.20;99.90;;;;;;6156179;23;19907;-75
2022/03/09 10:03:37;;;;;;;;;;;19.20;99.90;;;;;;6156035;23;19900;-75
2022/03/09 10:06:04;;;;;;;;;;;19.20;99.90;;;;;;6155836;23;19912;-75
2022/03/09 10:08:31;;;;;;;;;;;19.20;99.90;;;;;;6129790;23;19940;-75
2022/03/09 10:10:59;;;;;;;;;;;19.10;99.90;;;;;;6129790;23;19955;-76
2022/03/09 10:13:30;;;;;;;;;;;19.10;99.90;;;;;;6156026;23;19905;-75
2022/03/09 10:16:18;;;;;;;;;;;19.10;99.90;;;;;;6156053;23;19944;-75
2022/03/09 10:18:49;;;;;;;;;;;19.10;99.90;;;;;;6156060;23;19928;-75
2022/03/09 10:21:17;;;;;;;;;;;19.00;99.90;;;;;;6155949;23;19905;-75
2022/03/09 10:23:54;;;;;;;;;;;19.00;99.90;;;;;;6129866;23;19900;-75
2022/03/09 10:26:47;;;;;;;;;;;19.00;99.90;;;;;;6155902;23;19924;-75
2022/03/09 10:29:15;;;;;;;;;;;19.00;99.90;;;;;;6149686;23;20216;-75
2022/03/09 10:31:43;;;;;;;;;;;19.00;99.90;;;;;;6155501;23;19901;-75
2022/03/09 10:34:09;;;;;;;;;;;19.00;99.90;;;;;;6155862;23;20285;-75
2022/03/09 10:36:37;;;;;;;;;;;19.00;99.90;;;;;;6155804;23;20329;-75
2022/03/09 10:39:14;;;;;;;;;;;19.00;99.90;;;;;;6155914;23;19907;-75
2022/03/09 10:41:41;;;;;;;;;;;19.00;99.90;;;;;;6155864;23;19901;-75
2022/03/09 10:44:08;;;;;;;;;;;19.00;99.90;;;;;;6155935;23;19959;-75
2022/03/09 10:46:54;;;;;;;;;;;19.00;99.90;;;;;;6155873;23;19901;-75
2022/03/09 10:49:24;;;;;;;;;;;19.00;99.90;;;;;;6155074;23;19900;-75
2022/03/09 10:51:53;;;;;;;;;;;19.00;99.90;;;;;;6155815;23;19933;-75
2022/03/09 10:54:24;;;;;;;;;;;19.00;99.90;;;;;;6155671;23;19940;-76
2022/03/09 10:57:02;;;;;;;;;;;18.90;99.90;;;;;;6155890;23;19900;-75
2022/03/09 10:59:42;;;;;;;;;;;19.00;99.90;;;;;;6129336;23;19931;-75
2022/03/09 11:02:09;;;;;;;;;;;19.00;99.90;;;;;;6129417;23;19912;-75
2022/03/09 11:04:37;;;;;;;;;;;18.90;99.90;;;;;;6128883;23;19950;-75
2022/03/09 11:07:04;;;;;;;;;;;18.90;99.90;;;;;;6155515;23;19982;-74
2022/03/09 11:09:31;;;;;;;;;;;18.90;99.90;;;;;;6155486;23;19901;-73
2022/03/09 11:11:58;;;;;;;;;;;18.90;99.90;;;;;;6155409;23;19983;-75
2022/03/09 11:14:29;;;;;;;;;;;18.90;99.90;;;;;;6155307;23;19908;-75
2022/03/09 11:17:00;;;;;;;;;;;18.80;99.90;;;;;;6129100;23;20237;-76
2022/03/09 11:19:27;;;;;;;;;;;18.90;99.90;;;;;;6129187;23;19922;-76
2022/03/09 11:21:55;;;;;;;;;;;18.90;99.90;;;;;;6155445;23;20333;-76
2022/03/09 11:24:21;;;;;;;;;;;18.90;99.90;;;;;;6129165;23;20287;-76
2022/03/09 11:26:53;;;;;;;;;;;18.90;99.90;;;;;;6155363;23;19901;-75
2022/03/09 11:29:31;;;;;;;;;;;18.90;99.90;;;;;;6129105;23;19900;-75
2022/03/09 11:31:58;;;;;;;;;;;18.90;99.90;;;;;;6155248;23;20334;-76
2022/03/09 11:34:38;;;;;;;;;;;18.90;99.90;;;;;;6155219;23;19904;-76
2022/03/09 11:37:06;;;;;;;;;;;18.90;99.90;;;;;;6155572;23;19900;-76
2022/03/09 11:39:34;;;;;;;;;;;18.90;99.90;;;;;;6155551;23;19901;-76
2022/03/09 11:42:19;;;;;;;;;;;18.80;99.90;;;;;;6129278;23;19901;-76
2022/03/09 11:44:46;;;;;;;;;;;18.70;99.90;;;;;;6157369;23;19907;-76
2022/03/09 11:47:13;;;;;;;;;;;18.70;99.90;;;;;;6131046;23;19943;-76
2022/03/09 11:49:45;;;;;;;;;;;18.70;99.90;;;;;;6131242;23;19979;-76
2022/03/09 11:52:22;;;;;;;;;;;18.70;99.90;;;;;;6157515;23;19908;-76
2022/03/09 11:54:55;;;;;;;;;;;18.70;99.90;;;;;;6157459;23;19928;-76
2022/03/09 11:57:26;;;;;;;;;;;18.70;99.90;;;;;;6157453;23;19901;-76
2022/03/09 11:59:55;;;;;;;;;;;18.70;99.90;;;;;;6131029;23;19900;-76
2022/03/09 12:02:22;;;;;;;;;;;18.70;99.90;;;;;;6157174;23;19907;-76
2022/03/09 12:04:49;;;;;;;;;;;18.70;99.90;;;;;;6156948;23;19910;-76
2022/03/09 12:07:28;;;;;;;;;;;18.70;99.90;;;;;;6157312;23;20324;-76
2022/03/09 12:09:58;;;;;;;;;;;18.70;99.90;;;;;;6157234;23;19907;-76
2022/03/09 12:12:26;;;;;;;;;;;18.60;99.90;;;;;;6130790;23;19995;-76
2022/03/09 12:15:08;;;;;;;;;;;18.60;99.90;;;;;;6130890;23;19912;-76
2022/03/09 12:17:37;;;;;;;;;;;18.60;99.90;;;;;;6157089;23;19900;-76
2022/03/09 12:20:27;;;;;;;;;;;18.50;99.90;;;;;;6157097;23;19900;-76
2022/03/09 12:22:57;;;;;;;;;;;18.50;99.90;;;;;;6130932;23;19915;-76
2022/03/09 12:25:39;;;;;;;;;;;18.40;99.90;;;;;;6130706;23;20219;-76
2022/03/09 12:28:24;;;;;;;;;;;18.50;99.90;;;;;;6130808;23;20318;-76
2022/03/09 12:30:54;;;;;;;;;;;18.50;99.90;;;;;;6157030;23;19926;-76
2022/03/09 12:33:24;;;;;;;;;;;18.40;99.90;;;;;;6156957;23;19901;-76
2022/03/09 12:35:52;;;;;;;;;;;18.40;99.90;;;;;;6130625;23;19905;-76
2022/03/09 12:38:19;;;;;;;;;;;18.30;99.90;;;;;;6156845;23;19900;-76
2022/03/09 12:40:45;;;;;;;;;;;18.40;99.90;;;;;;6156869;23;19975;-77
2022/03/09 12:43:16;;;;;;;;;;;18.30;99.90;;;;;;6130636;23;19915;-76
2022/03/09 12:45:55;;;;;;;;;;;18.30;99.90;;;;;;6130698;23;19961;-76
2022/03/09 12:48:23;;;;;;;;;;;18.20;99.90;;;;;;6156813;23;19904;-75
2022/03/09 12:50:49;;;;;;;;;;;18.20;99.90;;;;;;6156733;23;19951;-76
2022/03/09 12:53:22;;;;;;;;;;;18.20;99.90;;;;;;6156823;23;19900;-76
2022/03/09 12:55:48;;;;;;;;;;;18.20;99.90;;;;;;6129998;23;19987;-75
2022/03/09 12:58:22;;;;;;;;;;;18.20;99.90;;;;;;6130503;23;20373;-76
2022/03/09 13:01:00;;;;;;;;;;;18.20;99.90;;;;;;6156701;23;20307;-76
2022/03/09 13:03:28;;;;;;;;;;;18.20;99.90;;;;;;6156890;23;19901;-76
2022/03/09 13:05:55;;;;;;;;;;;18.30;99.90;;;;;;6130313;23;19908;-76
2022/03/09 13:08:21;;;;;;;;;;;18.20;99.90;;;;;;6156641;23;19908;-76
2022/03/09 13:10:52;;;;;;;;;;;18.10;99.90;;;;;;6130294;23;19975;-76
2022/03/09 13:13:18;;;;;;;;;;;18.00;99.90;;;;;;6156632;23;19901;-76
2022/03/09 13:15:48;;;;;;;;;;;18.00;99.90;;;;;;6156462;23;19963;-76
2022/03/09 13:18:16;;;;;;;;;;;18.20;99.90;;;;;;6156455;23;19908;-76
2022/03/09 13:20:45;;;;;;;;;;;18.10;99.90;;;;;;6156462;23;19952;-76
2022/03/09 13:23:25;;;;;;;;;;;18.10;99.90;;;;;;6156483;23;19928;-76
2022/03/09 13:25:52;;;;;;;;;;;18.00;99.90;;;;;;6156480;23;19901;-76
2022/03/09 13:28:27;;;;;;;;;;;18.00;99.90;;;;;;6156407;23;20219;-76
2022/03/09 13:30:55;;;;;;;;;;;18.00;99.90;;;;;;6130215;23;20231;-75
2022/03/09 13:33:23;;;;;;;;;;;18.00;99.90;;;;;;6156370;23;19939;-76
2022/03/09 13:35:51;;;;;;;;;;;18.00;99.90;;;;;;6130053;23;19979;-76
2022/03/09 13:38:24;;;;;;;;;;;17.90;99.90;;;;;;6156245;23;19935;-75
2022/03/09 13:41:01;;;;;;;;;;;17.80;99.90;;;;;;6156212;23;19900;-76
2022/03/09 13:43:28;;;;;;;;;;;17.90;99.90;;;;;;6130081;23;19908;-76
2022/03/09 13:45:56;;;;;;;;;;;17.90;99.90;;;;;;6129921;23;19901;-76
2022/03/09 13:48:24;;;;;;;;;;;17.80;99.90;;;;;;6129893;23;19924;-76
2022/03/09 13:50:59;;;;;;;;;;;17.80;99.90;;;;;;6156097;23;19901;-76
2022/03/09 13:53:30;;;;;;;;;;;17.80;99.90;;;;;;6130007;23;19901;-76
2022/03/09 13:55:57;;;;;;;;;;;17.70;99.90;;;;;;6129873;23;19905;-76
2022/03/09 13:58:27;;;;;;;;;;;17.70;99.90;;;;;;6156148;23;20282;-76
2022/03/09 14:01:10;;;;;;;;;;;17.60;99.90;;;;;;6156102;23;19900;-76
2022/03/09 14:03:49;;;;;;;;;;;17.60;99.90;;;;;;6129806;23;19907;-76
2022/03/09 14:06:17;;;;;;;;;;;17.70;99.90;;;;;;6129603;23;19908;-75
2022/03/09 14:08:45;;;;;;;;;;;17.70;99.90;;;;;;6155993;23;19975;-76
2022/03/09 14:11:15;;;;;;;;;;;17.60;99.90;;;;;;6156021;23;19901;-76
2022/03/09 14:14:02;;;;;;;;;;;17.60;99.90;;;;;;6156001;23;19901;-76
2022/03/09 14:16:30;;;;;;;;;;;17.60;99.90;;;;;;6129803;23;19935;-76
2022/03/09 14:18:58;;;;;;;;;;;17.60;99.90;;;;;;6129830;23;19900;-75
2022/03/09 14:21:24;;;;;;;;;;;17.50;99.90;;;;;;6155947;23;19901;-76
2022/03/09 14:23:57;;;;;;;;;;;17.50;99.90;;;;;;6129770;23;19932;-76
2022/03/09 14:26:27;;;;;;;;;;;17.60;99.90;;;;;;6129854;23;19901;-75